Time;durP1;ratioP1;P1;durP2;ratioP2;P2;SDS_P1;SDS_P2;PMS_P1;PMS_P2;Temp;Humidity;BMP_temperature;BMP_pressure;BME280_temperature;BME280_humidity;BME280_pressure;Samples;Min_cycle;Max_cycle;Signal;HPM_P1;HPM_P2
2021/04/20 00:01:34;;;;;;;;;;;;;;;4.79;93.79;101928.72;4941069;29;2136;-72
2021/04/20 00:04:00;;;;;;;;;;;;;;;4.75;93.97;101924.91;4941003;29;881;-72
2021/04/20 00:06:26;;;;;;;;;;;;;;;4.71;93.49;101918.38;4940811;29;2220;-73
2021/04/20 00:08:51;;;;;;;;;;;;;;;4.69;93.41;101917.84;4940336;29;1257;-73
2021/04/20 00:11:16;;;;;;;;;;;;;;;4.65;93.84;101917.56;4940593;29;2114;-73
2021/04/20 00:13:42;;;;;;;;;;;;;;;4.64;93.68;101915.13;4940457;29;2036;-73
2021/04/20 00:16:07;;;;;;;;;;;;;;;4.59;94.12;101907.72;4940721;29;1886;-73
2021/04/20 00:18:32;;;;;;;;;;;;;;;4.54;93.67;101917.88;4940027;29;1186;-74
2021/04/20 00:20:57;;;;;;;;;;;;;;;4.49;93.66;101915.97;4940798;29;2033;-72
2021/04/20 00:23:23;;;;;;;;;;;;;;;4.43;94.06;101908.84;4941021;29;893;-73
2021/04/20 00:25:48;;;;;;;;;;;;;;;4.37;94.16;101909.97;4940698;29;1891;-73
2021/04/20 00:28:24;;;;;;;;;;;;;;;4.34;93.97;101911.31;4940116;29;1266;-73
2021/04/20 00:30:50;;;;;;;;;;;;;;;4.32;93.85;101911.59;4939052;29;2061;-73
2021/04/20 00:33:16;;;;;;;;;;;;;;;4.28;93.98;101907.78;4940794;29;1946;-72
2021/04/20 00:35:41;;;;;;;;;;;;;;;4.28;94.62;101906.97;4940774;29;985;-72
2021/04/20 00:38:07;;;;;;;;;;;;;;;4.25;94.32;101908.31;4939924;29;1810;-73
2021/04/20 00:40:32;;;;;;;;;;;;;;;4.24;93.98;101905.84;4940543;29;814;-72
2021/04/20 00:42:58;;;;;;;;;;;;;;;4.20;94.61;101905.59;4940452;29;1025;-73
2021/04/20 00:45:26;;;;;;;;;;;;;;;4.18;94.45;101905.06;4939497;29;1929;-73
2021/04/20 00:47:52;;;;;;;;;;;;;;;4.14;94.56;101901.25;4939788;29;1974;-73
2021/04/20 00:50:20;;;;;;;;;;;;;;;4.10;94.42;101900.13;4940178;29;811;-73
2021/04/20 00:52:46;;;;;;;;;;;;;;;4.05;94.18;101906.44;4940613;29;981;-73
2021/04/20 00:55:12;;;;;;;;;;;;;;;4.02;94.63;101892.50;4940342;29;960;-72
2021/04/20 00:57:37;;;;;;;;;;;;;;;3.99;94.49;101896.59;4939336;29;1966;-73
2021/04/20 01:00:10;;;;;;;;;;;;;;;3.94;94.78;101896.59;4940119;29;930;-73
2021/04/20 01:02:36;;;;;;;;;;;;;;;3.90;94.89;101899.03;4939739;29;2013;-73
2021/04/20 01:05:01;;;;;;;;;;;;;;;3.88;94.59;101897.69;4939797;29;1965;-73
2021/04/20 01:07:27;;;;;;;;;;;;;;;3.86;94.62;101897.97;4939783;29;845;-73
2021/04/20 01:09:53;;;;;;;;;;;;;;;3.86;94.71;101897.97;4939267;29;2045;-73
2021/04/20 01:12:18;;;;;;;;;;;;;;;3.83;94.29;101897.69;4940149;29;938;-73
2021/04/20 01:14:44;;;;;;;;;;;;;;;3.78;94.79;101901.22;4939670;29;850;-73
2021/04/20 01:17:10;;;;;;;;;;;;;;;3.75;94.84;101896.28;4939617;29;2114;-73
2021/04/20 01:19:36;;;;;;;;;;;;;;;3.73;94.98;101901.22;4939154;29;1218;-73
2021/04/20 01:22:02;;;;;;;;;;;;;;;3.67;94.43;101905.03;4940074;29;912;-73
2021/04/20 01:24:29;;;;;;;;;;;;;;;3.61;94.33;101901.47;4939571;29;2036;-73
2021/04/20 01:26:57;;;;;;;;;;;;;;;3.55;94.12;101895.19;4940039;29;1899;-73
2021/04/20 01:29:22;;;;;;;;;;;;;;;3.49;94.30;101892.72;4939938;29;1238;-72
2021/04/20 01:31:49;;;;;;;;;;;;;;;3.44;94.57;101893.50;4939489;29;2033;-73
2021/04/20 01:34:14;;;;;;;;;;;;;;;3.42;94.42;101889.44;4939922;29;1047;-73
2021/04/20 01:36:40;;;;;;;;;;;;;;;3.38;94.78;101889.16;4939986;29;782;-73
2021/04/20 01:39:08;;;;;;;;;;;;;;;3.36;94.62;101888.59;4937549;29;2213;-73
2021/04/20 01:41:35;;;;;;;;;;;;;;;3.31;94.52;101889.41;4939662;29;861;-73
2021/04/20 01:44:00;;;;;;;;;;;;;;;3.26;94.09;101883.13;4939532;29;885;-72
2021/04/20 01:46:26;;;;;;;;;;;;;;;3.22;94.17;101885.56;4938929;29;2431;-73
2021/04/20 01:48:52;;;;;;;;;;;;;;;3.22;94.12;101882.00;4938409;29;1206;-73
2021/04/20 01:51:19;;;;;;;;;;;;;;;3.19;93.85;101877.91;4938594;29;1019;-73
2021/04/20 01:53:50;;;;;;;;;;;;;;;3.16;94.53;101884.69;4939258;29;1008;-73
2021/04/20 01:56:16;;;;;;;;;;;;;;;3.12;93.78;101880.06;4938612;29;2077;-73
2021/04/20 01:58:44;;;;;;;;;;;;;;;3.07;93.60;101886.31;4938656;29;1270;-72
2021/04/20 02:01:12;;;;;;;;;;;;;;;3.04;93.90;101881.41;4938748;29;2009;-73
2021/04/20 02:03:38;;;;;;;;;;;;;;;3.01;93.96;101881.91;4938933;29;901;-73
2021/04/20 02:06:06;;;;;;;;;;;;;;;3.01;93.65;101880.03;4938615;29;1969;-73
2021/04/20 02:08:33;;;;;;;;;;;;;;;2.98;93.72;101875.09;4938553;29;1229;-73
2021/04/20 02:11:01;;;;;;;;;;;;;;;2.96;93.97;101880.00;4938555;29;2041;-73
2021/04/20 02:13:27;;;;;;;;;;;;;;;2.93;93.32;101874.28;4938267;29;1032;-73
2021/04/20 02:15:53;;;;;;;;;;;;;;;2.89;93.95;101870.41;4938429;29;2021;-73
2021/04/20 02:18:20;;;;;;;;;;;;;;;2.86;93.42;101876.44;4937567;29;1199;-72
2021/04/20 02:20:46;;;;;;;;;;;;;;;2.84;93.35;101871.25;4938545;29;814;-73
2021/04/20 02:23:13;;;;;;;;;;;;;;;2.82;93.53;101870.66;4938549;29;868;-73
2021/04/20 02:25:42;;;;;;;;;;;;;;;2.75;93.74;101867.34;4938509;29;1898;-73
2021/04/20 02:28:08;;;;;;;;;;;;;;;2.72;93.46;101876.09;4937688;29;2016;-72
2021/04/20 02:30:33;;;;;;;;;;;;;;;2.68;93.83;101877.69;4938128;29;1922;-73
2021/04/20 02:32:59;;;;;;;;;;;;;;;2.63;93.20;101878.50;4938472;29;893;-73
2021/04/20 02:35:28;;;;;;;;;;;;;;;2.59;93.25;101880.91;4938464;29;1060;-72
2021/04/20 02:37:53;;;;;;;;;;;;;;;2.54;93.19;101880.06;4937554;29;2052;-73
2021/04/20 02:40:22;;;;;;;;;;;;;;;2.50;93.75;101879.78;4936795;29;1020;-73
2021/04/20 02:42:49;;;;;;;;;;;;;;;2.51;93.93;101883.31;4938110;29;2238;-73
2021/04/20 02:45:15;;;;;;;;;;;;;;;2.49;93.74;101883.56;4937590;29;2054;-73
2021/04/20 02:47:40;;;;;;;;;;;;;;;2.47;93.72;101882.22;4937505;29;2067;-73
2021/04/20 02:50:11;;;;;;;;;;;;;;;2.44;93.69;101887.13;4938486;29;889;-73
2021/04/20 02:52:38;;;;;;;;;;;;;;;2.43;93.87;101880.00;4938004;29;2006;-73
2021/04/20 02:55:06;;;;;;;;;;;;;;;2.39;93.61;101881.63;4938077;29;1053;-73
2021/04/20 02:57:35;;;;;;;;;;;;;;;2.36;94.03;101884.88;4937715;29;947;-73
2021/04/20 03:00:00;;;;;;;;;;;;;;;2.34;93.42;101883.50;4937885;29;1187;-73
2021/04/20 03:02:26;;;;;;;;;;;;;;;2.32;93.70;101874.75;4936638;29;2073;-73
2021/04/20 03:04:52;;;;;;;;;;;;;;;2.29;93.52;101870.66;4937964;29;1952;-73
2021/04/20 03:07:17;;;;;;;;;;;;;;;2.26;93.87;101868.47;4938234;29;926;-73
2021/04/20 03:09:43;;;;;;;;;;;;;;;2.22;93.75;101862.72;4937700;29;1222;-72
2021/04/20 03:12:09;;;;;;;;;;;;;;;2.20;93.75;101872.25;4937969;29;952;-72
2021/04/20 03:14:35;;;;;;;;;;;;;;;2.17;93.62;101870.03;4938115;29;861;-73
2021/04/20 03:17:01;;;;;;;;;;;;;;;2.14;93.56;101870.56;4938006;29;2068;-73
2021/04/20 03:19:26;;;;;;;;;;;;;;;2.12;93.81;101861.81;4937342;29;1178;-72
2021/04/20 03:21:52;;;;;;;;;;;;;;;2.10;93.92;101855.81;4938117;29;1039;-73
2021/04/20 03:24:53;;;;;;;;;;;;;;;2.03;93.57;101856.03;4938891;29;838;-73
2021/04/20 03:27:19;;;;;;;;;;;;;;;1.96;93.91;101859.00;4940169;29;762;-72
2021/04/20 03:29:44;;;;;;;;;;;;;;;1.92;93.78;101863.31;4945491;29;2132;-73
2021/04/20 03:32:11;;;;;;;;;;;;;;;1.84;93.83;101852.91;4946526;29;2029;-73
2021/04/20 03:34:44;;;;;;;;;;;;;;;1.79;93.72;101852.84;4946506;29;1060;-73
2021/04/20 03:37:13;;;;;;;;;;;;;;;1.76;93.99;101850.66;4946372;29;809;-73
2021/04/20 03:39:45;;;;;;;;;;;;;;;1.73;93.93;101852.00;4946152;29;1265;-73
2021/04/20 03:42:33;;;;;;;;;;;;;;;1.69;93.95;101853.59;4951256;29;1024;-72
2021/04/20 03:45:06;;;;;;;;;;;;;;;1.65;93.83;101853.28;4954603;29;2135;-73
2021/04/20 03:47:37;;;;;;;;;;;;;;;1.62;93.92;101851.06;4953169;29;2019;-73
2021/04/20 03:50:06;;;;;;;;;;;;;;;1.62;93.78;101847.53;4954131;29;1273;-73
2021/04/20 03:52:38;;;;;;;;;;;;;;;1.57;93.82;101847.50;4943485;29;1164;-73
2021/04/20 03:55:07;;;;;;;;;;;;;;;1.53;93.46;101839.03;4937814;29;765;-73
2021/04/20 03:57:35;;;;;;;;;;;;;;;1.48;93.74;101834.34;4936739;29;1060;-73
2021/04/20 04:00:04;;;;;;;;;;;;;;;1.47;93.82;101846.31;4936742;29;2116;-73
2021/04/20 04:02:32;;;;;;;;;;;;;;;1.43;93.78;101844.38;4936452;29;1860;-74
2021/04/20 04:05:00;;;;;;;;;;;;;;;1.41;93.75;101841.09;4936822;29;2057;-73
2021/04/20 04:07:28;;;;;;;;;;;;;;;1.36;93.58;101843.75;4937130;29;909;-72
2021/04/20 04:09:54;;;;;;;;;;;;;;;1.33;93.53;101846.97;4936775;29;1175;-73
2021/04/20 04:12:23;;;;;;;;;;;;;;;1.33;93.67;101842.34;4937807;29;872;-72
2021/04/20 04:14:49;;;;;;;;;;;;;;;1.35;93.64;101845.66;4939240;29;949;-73
2021/04/20 04:17:18;;;;;;;;;;;;;;;1.40;93.72;101840.28;4940385;29;1935;-73
2021/04/20 04:19:46;;;;;;;;;;;;;;;1.41;93.61;101841.09;4940080;29;1218;-73
2021/04/20 04:22:19;;;;;;;;;;;;;;;1.40;93.59;101842.16;4940537;29;908;-73
2021/04/20 04:24:49;;;;;;;;;;;;;;;1.45;93.51;101847.66;4940595;29;905;-73
2021/04/20 04:27:17;;;;;;;;;;;;;;;1.48;93.39;101852.59;4940815;29;1986;-73
2021/04/20 04:29:47;;;;;;;;;;;;;;;1.49;93.07;101844.16;4939638;29;2236;-72
2021/04/20 04:32:15;;;;;;;;;;;;;;;1.56;92.99;101838.50;4939978;29;2192;-72
2021/04/20 04:34:40;;;;;;;;;;;;;;;1.62;92.92;101839.38;4940646;29;1040;-73
2021/04/20 04:37:08;;;;;;;;;;;;;;;1.66;92.79;101848.66;4940611;29;1040;-73
2021/04/20 04:39:34;;;;;;;;;;;;;;;1.73;92.71;101848.44;4939384;29;2060;-73
2021/04/20 04:41:59;;;;;;;;;;;;;;;1.76;92.47;101845.19;4938920;29;2039;-73
2021/04/20 04:44:25;;;;;;;;;;;;;;;1.83;92.33;101845.81;4937584;29;3614;-73
2021/04/20 04:46:50;;;;;;;;;;;;;;;1.92;91.83;101846.13;4938379;29;3434;-73
2021/04/20 04:49:17;;;;;;;;;;;;;;;1.99;91.62;101844.00;4937628;29;1218;-73
2021/04/20 04:51:43;;;;;;;;;;;;;;;2.04;90.93;101842.16;4938979;29;802;-73
2021/04/20 04:54:13;;;;;;;;;;;;;;;2.14;90.79;101841.41;4924636;29;3377;-73
2021/04/20 04:56:43;;;;;;;;;;;;;;;2.25;89.94;101842.31;4919270;29;822;-73
2021/04/20 04:59:11;;;;;;;;;;;;;;;2.32;89.58;101851.06;4928173;29;2109;-73
2021/04/20 05:01:37;;;;;;;;;;;;;;;2.41;89.72;101851.38;4939339;29;2033;-73
2021/04/20 05:04:06;;;;;;;;;;;;;;;2.52;89.46;101847.63;4939972;29;870;-73
2021/04/20 05:06:34;;;;;;;;;;;;;;;2.65;88.78;101851.78;4941610;29;1872;-73
2021/04/20 05:08:59;;;;;;;;;;;;;;;2.76;88.27;101849.91;4939266;29;1222;-73
2021/04/20 05:11:26;;;;;;;;;;;;;;;2.86;88.17;101852.69;4939670;29;976;-73
2021/04/20 05:13:51;;;;;;;;;;;;;;;2.96;87.12;101846.47;4939410;29;2054;-73
2021/04/20 05:16:19;;;;;;;;;;;;;;;3.05;86.85;101850.31;4938749;29;2088;-73
2021/04/20 05:18:45;;;;;;;;;;;;;;;3.16;86.55;101851.13;4939110;29;1308;-73
2021/04/20 05:21:11;;;;;;;;;;;;;;;3.25;86.25;101854.16;4939686;29;1035;-73
2021/04/20 05:23:36;;;;;;;;;;;;;;;3.36;84.86;101862.13;4939470;29;937;-73
2021/04/20 05:26:01;;;;;;;;;;;;;;;3.49;84.78;101854.47;4938378;29;1894;-73
2021/04/20 05:28:27;;;;;;;;;;;;;;;3.62;84.00;101853.16;4938713;29;1206;-72
2021/04/20 05:30:53;;;;;;;;;;;;;;;3.72;82.44;101855.84;4938715;29;2041;-73
2021/04/20 05:33:18;;;;;;;;;;;;;;;3.95;81.03;101859.97;4938510;29;2022;-74
2021/04/20 05:35:44;;;;;;;;;;;;;;;4.89;79.35;101854.81;4940067;29;798;-74
2021/04/20 05:38:10;;;;;;;;;;;;;;;8.13;68.71;101839.44;4938232;29;1871;-73
2021/04/20 05:40:40;;;;;;;;;;;;;;;10.21;57.91;101844.50;4939348;29;810;-74
2021/04/20 05:43:06;;;;;;;;;;;;;;;11.62;55.76;101844.53;4939299;29;857;-74
2021/04/20 05:45:32;;;;;;;;;;;;;;;12.47;52.32;101845.84;4937329;29;2112;-74
2021/04/20 05:47:59;;;;;;;;;;;;;;;12.95;49.13;101839.06;4938563;29;1218;-75
2021/04/20 05:50:28;;;;;;;;;;;;;;;13.14;50.24;101844.97;4939506;29;779;-74
2021/04/20 05:52:54;;;;;;;;;;;;;;;13.82;48.87;101841.16;4938930;29;2105;-75
2021/04/20 05:55:20;;;;;;;;;;;;;;;14.55;46.64;101833.31;4939463;29;812;-77
2021/04/20 05:57:47;;;;;;;;;;;;;;;14.79;44.98;101833.38;4938318;29;2018;-74
2021/04/20 06:00:14;;;;;;;;;;;;;;;14.79;41.82;101835.31;4938866;29;1864;-74
2021/04/20 06:02:40;;;;;;;;;;;;;;;14.01;47.79;101835.09;4938746;29;2041;-74
2021/04/20 06:05:14;;;;;;;;;;;;;;;11.94;50.61;101834.09;4938310;29;1965;-74
2021/04/20 06:07:46;;;;;;;;;;;;;;;13.76;48.82;101845.31;4938132;29;1264;-74
2021/04/20 06:10:13;;;;;;;;;;;;;;;15.37;45.34;101829.53;4938211;29;980;-74
2021/04/20 06:12:39;;;;;;;;;;;;;;;16.16;42.94;101832.56;4938412;29;873;-74
2021/04/20 06:15:06;;;;;;;;;;;;;;;16.68;41.93;101825.09;4937960;29;2095;-74
2021/04/20 06:17:33;;;;;;;;;;;;;;;16.99;40.16;101830.97;4937761;29;2707;-74
2021/04/20 06:19:59;;;;;;;;;;;;;;;17.24;37.87;101834.34;4938235;29;1147;-74
2021/04/20 06:22:26;;;;;;;;;;;;;;;16.91;38.89;101838.38;4938060;29;2118;-74
2021/04/20 06:24:52;;;;;;;;;;;;;;;17.18;37.73;101833.00;4938477;29;2073;-75
2021/04/20 06:27:17;;;;;;;;;;;;;;;17.13;38.67;101833.28;4938056;29;1961;-74
2021/04/20 06:29:42;;;;;;;;;;;;;;;17.52;38.50;101827.72;4936668;29;2191;-74
2021/04/20 06:32:10;;;;;;;;;;;;;;;17.79;37.22;101837.84;4937676;29;2045;-74
2021/04/20 06:34:36;;;;;;;;;;;;;;;18.43;37.15;101831.84;4938216;29;847;-74
2021/04/20 06:37:02;;;;;;;;;;;;;;;18.68;36.28;101834.22;4937719;29;2107;-74
2021/04/20 06:39:28;;;;;;;;;;;;;;;16.87;35.83;101837.47;4937545;29;1174;-74
2021/04/20 06:41:56;;;;;;;;;;;;;;;17.05;36.00;101838.69;4935177;29;3613;-74
2021/04/20 06:44:30;;;;;;;;;;;;;;;18.00;33.96;101833.88;4925608;29;3454;-74
2021/04/20 06:47:08;;;;;;;;;;;;;;;18.15;33.62;101838.56;4930040;29;1982;-74
2021/04/20 06:49:43;;;;;;;;;;;;;;;18.18;33.60;101831.41;4936028;29;1226;-74
2021/04/20 06:52:21;;;;;;;;;;;;;;;19.34;31.96;101820.78;4937800;29;920;-74
2021/04/20 06:54:55;;;;;;;;;;;;;;;20.18;32.17;101835.38;4937972;29;1058;-74
2021/04/20 06:57:30;;;;;;;;;;;;;;;20.86;30.56;101832.31;4937785;29;1995;-74
2021/04/20 07:00:11;;;;;;;;;;;;;;;21.34;29.80;101822.94;4937428;29;1856;-74
2021/04/20 07:03:14;;;;;;;;;;;;;;;21.49;28.40;101829.44;4937130;29;1652;-74
2021/04/20 07:05:39;;;;;;;;;;;;;;;20.50;30.48;101820.00;4938512;29;1895;-74
2021/04/20 07:08:13;;;;;;;;;;;;;;;22.04;30.46;101819.97;4937171;29;1194;-74
2021/04/20 07:10:42;;;;;;;;;;;;;;;21.70;28.07;101821.09;4937812;29;841;-74
2021/04/20 07:13:12;;;;;;;;;;;;;;;20.91;29.77;101820.72;4937576;29;2033;-74
2021/04/20 07:15:44;;;;;;;;;;;;;;;20.63;29.67;101821.34;4937128;29;2080;-74
2021/04/20 07:18:30;;;;;;;;;;;;;;;19.62;32.56;101820.34;4937044;29;1289;-75
2021/04/20 07:21:19;;;;;;;;;;;;;;;20.41;30.80;101809.91;4937088;29;2057;-75
2021/04/20 07:24:14;;;;;;;;;;;;;;;18.82;34.18;101814.88;4937601;29;838;-74
2021/04/20 07:27:06;;;;;;;;;;;;;;;18.51;32.61;101818.78;4937655;29;1954;-74
2021/04/20 07:29:35;;;;;;;;;;;;;;;17.47;34.07;101821.25;4936825;29;1305;-74
2021/04/20 07:32:14;;;;;;;;;;;;;;;17.82;33.21;101820.38;4936894;29;2040;-74
2021/04/20 07:34:58;;;;;;;;;;;;;;;18.00;32.74;101808.75;4937243;29;2107;-74
2021/04/20 07:37:42;;;;;;;;;;;;;;;19.09;32.31;101812.88;4937621;29;874;-74
2021/04/20 07:40:20;;;;;;;;;;;;;;;19.27;30.86;101813.09;4938079;29;1000;-74
2021/04/20 07:43:22;;;;;;;;;;;;;;;19.75;30.14;101808.91;4938160;29;893;-74
2021/04/20 07:45:51;;;;;;;;;;;;;;;20.46;30.10;101803.94;4935635;29;2129;-74
2021/04/20 07:48:42;;;;;;;;;;;;;;;21.33;28.43;101801.66;4936402;29;2156;-74
2021/04/20 07:51:42;;;;;;;;;;;;;;;22.25;26.84;101799.47;4921896;29;1051;-75
2021/04/20 07:54:17;;;;;;;;;;;;;;;23.53;27.80;101803.22;4926754;29;2038;-74
2021/04/20 07:56:48;;;;;;;;;;;;;;;23.81;26.16;101793.84;4941579;29;983;-75
2021/04/20 07:59:19;;;;;;;;;;;;;;;22.62;26.10;101799.09;4939365;29;1292;-75
2021/04/20 08:01:58;;;;;;;;;;;;;;;23.53;25.19;101794.78;4940953;29;2157;-74
2021/04/20 08:04:48;;;;;;;;;;;;;;;23.70;26.60;101798.72;4940454;29;2076;-75
2021/04/20 08:07:46;;;;;;;;;;;;;;;22.55;26.12;101796.28;4940715;29;1968;-74
2021/04/20 08:10:13;;;;;;;;;;;;;;;21.70;27.79;101798.63;4940836;29;865;-74
2021/04/20 08:13:16;;;;;;;;;;;;;;;22.96;25.99;101797.81;4940439;29;1946;-74
2021/04/20 08:15:50;;;;;;;;;;;;;;;23.03;25.83;101795.78;4931605;29;2029;-74
2021/04/20 08:18:23;;;;;;;;;;;;;;;24.66;26.03;101796.41;4938170;29;1991;-74
2021/04/20 08:20:52;;;;;;;;;;;;;;;24.63;24.78;101785.16;4938872;29;2076;-74
2021/04/20 08:23:18;;;;;;;;;;;;;;;24.73;23.59;101789.88;4940383;29;783;-74
2021/04/20 08:26:12;;;;;;;;;;;;;;;24.17;24.46;101787.94;4940355;29;2181;-74
2021/04/20 08:29:27;;;;;;;;;;;;;;;24.18;26.95;101781.06;4932605;29;1265;-72
2021/04/20 08:31:59;;;;;;;;;;;;;;;25.92;24.60;101785.53;4933268;29;1883;-74
2021/04/20 08:34:37;;;;;;;;;;;;;;;26.42;21.30;101777.03;4938276;29;2128;-74
2021/04/20 08:37:06;;;;;;;;;;;;;;;25.45;22.40;101774.91;4940097;29;1923;-74
2021/04/20 08:39:50;;;;;;;;;;;;;;;25.97;23.03;101774.56;4939198;29;1210;-74
2021/04/20 08:42:34;;;;;;;;;;;;;;;27.07;20.08;101767.31;4940322;29;1987;-74
2021/04/20 08:45:20;;;;;;;;;;;;;;;27.51;19.17;101765.19;4940038;29;870;-74
2021/04/20 08:47:55;;;;;;;;;;;;;;;28.18;19.58;101763.22;4939863;29;1174;-73
2021/04/20 08:50:25;;;;;;;;;;;;;;;28.70;18.10;101762.25;4938593;29;1325;-74
2021/04/20 08:52:57;;;;;;;;;;;;;;;28.78;18.50;101757.16;4939879;29;1886;-74
2021/04/20 08:55:35;;;;;;;;;;;;;;;27.26;18.20;101762.06;4939615;29;965;-76
2021/04/20 08:58:37;;;;;;;;;;;;;;;27.72;18.97;101758.22;4939515;29;1183;-74
2021/04/20 09:01:24;;;;;;;;;;;;;;;27.00;18.56;101762.59;4939739;29;932;-75
2021/04/20 09:03:49;;;;;;;;;;;;;;;26.52;20.01;101763.13;4935216;29;1880;-74
2021/04/20 09:06:36;;;;;;;;;;;;;;;27.64;19.04;101758.81;4939680;29;1898;-74
2021/04/20 09:09:07;;;;;;;;;;;;;;;26.91;18.45;101756.72;4939089;29;1300;-75
2021/04/20 09:11:39;;;;;;;;;;;;;;;28.62;18.80;101749.47;4939666;29;791;-74
2021/04/20 09:14:10;;;;;;;;;;;;;;;26.99;19.46;101754.53;4939593;29;989;-75
2021/04/20 09:17:03;;;;;;;;;;;;;;;28.12;20.32;101748.75;4938645;29;2120;-74
2021/04/20 09:19:47;;;;;;;;;;;;;;;29.82;16.04;101745.50;4938697;29;1301;-73
2021/04/20 09:22:33;;;;;;;;;;;;;;;29.19;16.92;101745.03;4939190;29;913;-74
2021/04/20 09:25:10;;;;;;;;;;;;;;;29.04;17.78;101750.28;4927771;29;1999;-73
2021/04/20 09:27:45;;;;;;;;;;;;;;;28.50;15.25;101748.16;4919482;29;890;-72
2021/04/20 09:30:16;;;;;;;;;;;;;;;28.38;15.96;101743.19;4919996;29;1005;-75
2021/04/20 09:32:51;;;;;;;;;;;;;;;27.16;16.85;101750.50;4932022;29;2163;-75
2021/04/20 09:35:16;;;;;;;;;;;;;;;26.34;18.19;101754.97;4939201;29;2014;-75
2021/04/20 09:37:43;;;;;;;;;;;;;;;28.41;15.62;101748.81;4936177;29;2003;-74
2021/04/20 09:40:13;;;;;;;;;;;;;;;28.89;15.06;101738.53;4939000;29;862;-74
2021/04/20 09:42:41;;;;;;;;;;;;;;;28.43;16.11;101745.50;4938922;29;904;-73
2021/04/20 09:45:31;;;;;;;;;;;;;;;28.35;14.86;101753.41;4938928;29;1051;-73
2021/04/20 09:48:05;;;;;;;;;;;;;;;28.98;15.19;101739.94;4937026;29;2033;-73
2021/04/20 09:50:33;;;;;;;;;;;;;;;27.13;17.01;101750.59;4938715;29;2152;-73
2021/04/20 09:53:17;;;;;;;;;;;;;;;28.91;17.49;101745.84;4939122;29;1001;-73
2021/04/20 09:55:47;;;;;;;;;;;;;;;29.40;15.80;101740.72;4937422;29;1894;-73
2021/04/20 09:58:15;;;;;;;;;;;;;;;29.19;15.48;101747.88;4938218;29;1312;-74
2021/04/20 10:00:42;;;;;;;;;;;;;;;28.76;15.27;101742.59;4939075;29;1880;-73
2021/04/20 10:03:36;;;;;;;;;;;;;;;28.09;14.65;101749.66;4938403;29;2100;-74
2021/04/20 10:06:29;;;;;;;;;;;;;;;29.98;15.48;101745.34;4938947;29;972;-75
2021/04/20 10:09:19;;;;;;;;;;;;;;;28.65;15.34;101740.84;4938091;29;1222;-75
2021/04/20 10:12:05;;;;;;;;;;;;;;;30.52;13.94;101740.69;4937865;29;827;-72
2021/04/20 10:15:01;;;;;;;;;;;;;;;30.95;13.50;101743.22;4938031;29;828;-73
2021/04/20 10:17:45;;;;;;;;;;;;;;;31.22;13.10;101731.19;4937286;29;2052;-73
2021/04/20 10:20:22;;;;;;;;;;;;;;;31.12;13.38;101741.75;4938266;29;830;-73
2021/04/20 10:23:01;;;;;;;;;;;;;;;31.20;15.87;101736.56;4938132;29;935;-73
2021/04/20 10:25:44;;;;;;;;;;;;;;;31.56;13.54;101743.72;4938084;29;849;-73
2021/04/20 10:28:25;;;;;;;;;;;;;;;31.30;12.41;101732.50;4937337;29;1274;-73
2021/04/20 10:30:54;;;;;;;;;;;;;;;29.13;14.11;101738.25;4938032;29;954;-73
2021/04/20 10:33:23;;;;;;;;;;;;;;;30.32;14.63;101734.47;4937496;29;2127;-73
2021/04/20 10:35:54;;;;;;;;;;;;;;;30.86;14.88;101730.47;4918935;29;1958;-73
2021/04/20 10:38:23;;;;;;;;;;;;;;;32.00;15.09;101727.19;4935678;29;2197;-73
2021/04/20 10:40:53;;;;;;;;;;;;;;;32.42;12.98;101715.19;4937885;29;1010;-73
2021/04/20 10:43:22;;;;;;;;;;;;;;;32.83;12.64;101705.66;4937365;29;2114;-73
2021/04/20 10:45:49;;;;;;;;;;;;;;;30.45;12.66;101718.13;4937331;29;2221;-74
2021/04/20 10:48:21;;;;;;;;;;;;;;;29.20;13.33;101717.38;4937167;29;2153;-73
2021/04/20 10:50:49;;;;;;;;;;;;;;;30.44;13.90;101721.44;4937794;29;829;-73
2021/04/20 10:53:20;;;;;;;;;;;;;;;31.30;13.15;101713.34;4938062;29;888;-73
2021/04/20 10:55:48;;;;;;;;;;;;;;;31.34;13.46;101712.38;4936820;29;1974;-73
2021/04/20 10:58:20;;;;;;;;;;;;;;;31.24;12.78;101708.72;4937182;29;1289;-73
2021/04/20 11:00:50;;;;;;;;;;;;;;;31.24;13.08;101703.78;4937761;29;781;-73
2021/04/20 11:03:31;;;;;;;;;;;;;;;31.62;12.59;101701.91;4937348;29;2114;-73
2021/04/20 11:05:57;;;;;;;;;;;;;;;31.44;14.38;101694.03;4937638;29;869;-73
2021/04/20 11:08:42;;;;;;;;;;;;;;;32.15;12.13;101693.16;4936698;29;1293;-73
2021/04/20 11:11:17;;;;;;;;;;;;;;;32.42;12.66;101694.41;4937612;29;2236;-73
2021/04/20 11:13:43;;;;;;;;;;;;;;;32.88;12.58;101693.56;4937612;29;982;-73
2021/04/20 11:16:11;;;;;;;;;;;;;;;31.43;12.99;101696.09;4937165;29;1903;-73
2021/04/20 11:18:39;;;;;;;;;;;;;;;32.24;11.89;101695.22;4936782;29;1887;-73
2021/04/20 11:21:10;;;;;;;;;;;;;;;31.54;12.85;101687.13;4936638;29;2026;-73
2021/04/20 11:23:57;;;;;;;;;;;;;;;30.31;12.57;101695.84;4936561;29;845;-74
2021/04/20 11:26:29;;;;;;;;;;;;;;;31.28;13.53;101678.75;4936944;29;2180;-74
2021/04/20 11:28:59;;;;;;;;;;;;;;;31.97;13.44;101665.31;4936362;29;1214;-73
2021/04/20 11:31:32;;;;;;;;;;;;;;;32.48;12.39;101671.69;4937262;29;2086;-74
2021/04/20 11:34:18;;;;;;;;;;;;;;;32.73;14.41;101662.00;4937263;29;836;-74
2021/04/20 11:36:54;;;;;;;;;;;;;;;33.08;13.13;101659.47;4937237;29;1899;-74
2021/04/20 11:39:25;;;;;;;;;;;;;;;31.30;13.22;101656.28;4935194;29;2157;-75
2021/04/20 11:42:01;;;;;;;;;;;;;;;32.05;12.54;101658.06;4937089;29;2135;-73
2021/04/20 11:44:39;;;;;;;;;;;;;;;31.77;12.53;101654.38;4937155;29;843;-74
2021/04/20 11:47:08;;;;;;;;;;;;;;;32.15;12.12;101663.78;4937069;29;1965;-75
2021/04/20 11:49:36;;;;;;;;;;;;;;;30.98;12.16;101653.94;4936593;29;1269;-75
2021/04/20 11:52:12;;;;;;;;;;;;;;;28.57;13.47;101665.63;4936957;29;1115;-75
2021/04/20 11:54:38;;;;;;;;;;;;;;;30.67;13.31;101649.75;4935776;29;1138;-74
2021/04/20 11:57:06;;;;;;;;;;;;;;;30.59;12.33;101653.34;4932990;29;2255;-75
2021/04/20 11:59:32;;;;;;;;;;;;;;;30.31;12.37;101656.75;4934024;29;2018;-75
2021/04/20 12:02:00;;;;;;;;;;;;;;;27.98;13.29;101649.78;4937237;29;847;-76
2021/04/20 12:04:36;;;;;;;;;;;;;;;30.51;13.27;101653.63;4936889;29;2118;-74
2021/04/20 12:07:02;;;;;;;;;;;;;;;31.09;11.50;101651.44;4935373;29;1626;-74
2021/04/20 12:09:36;;;;;;;;;;;;;;;30.26;12.57;101645.97;4926361;29;3565;-74
2021/04/20 12:12:03;;;;;;;;;;;;;;;30.78;11.84;101654.25;4936509;29;2007;-74
2021/04/20 12:14:34;;;;;;;;;;;;;;;31.65;12.12;101638.19;4935692;29;997;-74
2021/04/20 12:17:00;;;;;;;;;;;;;;;30.72;11.54;101649.16;4934400;29;1971;-74
2021/04/20 12:19:28;;;;;;;;;;;;;;;29.56;11.20;101645.94;4919615;29;3299;-74
2021/04/20 12:21:56;;;;;;;;;;;;;;;26.56;12.41;101650.56;4932071;29;2043;-74
2021/04/20 12:24:23;;;;;;;;;;;;;;;28.99;11.98;101639.22;4934714;29;813;-74
2021/04/20 12:26:50;;;;;;;;;;;;;;;28.40;12.19;101641.34;4936655;29;2028;-74
2021/04/20 12:29:19;;;;;;;;;;;;;;;29.41;13.87;101642.75;4936253;29;1285;-74
2021/04/20 12:31:45;;;;;;;;;;;;;;;31.40;12.21;101633.47;4936975;29;835;-74
2021/04/20 12:34:10;;;;;;;;;;;;;;;29.66;12.34;101635.44;4920735;29;3552;-74
2021/04/20 12:36:41;;;;;;;;;;;;;;;30.47;12.26;101643.59;4929575;29;2035;-74
2021/04/20 12:39:13;;;;;;;;;;;;;;;30.18;12.57;101648.28;4924166;29;3407;-74
2021/04/20 12:41:41;;;;;;;;;;;;;;;29.77;12.20;101638.72;4936172;29;1935;-73
2021/04/20 12:44:10;;;;;;;;;;;;;;;30.39;11.23;101640.25;4938011;29;2610;-74
2021/04/20 12:46:37;;;;;;;;;;;;;;;30.49;11.96;101641.91;4938083;29;1828;-74
2021/04/20 12:49:05;;;;;;;;;;;;;;;30.00;11.49;101640.38;4938413;29;1305;-74
2021/04/20 12:51:34;;;;;;;;;;;;;;;29.50;11.84;101632.72;4936443;29;3657;-74
2021/04/20 12:54:01;;;;;;;;;;;;;;;29.84;12.96;101634.84;4942431;29;802;-74
2021/04/20 12:56:36;;;;;;;;;;;;;;;29.98;11.77;101637.19;4942179;29;2778;-75
2021/04/20 12:59:05;;;;;;;;;;;;;;;29.50;13.20;101629.88;4941591;29;2045;-74
2021/04/20 13:01:32;;;;;;;;;;;;;;;29.76;11.42;101636.34;4925081;29;902;-75
2021/04/20 13:03:58;;;;;;;;;;;;;;;29.09;11.63;101623.88;4942137;29;1959;-74
2021/04/20 13:06:25;;;;;;;;;;;;;;;28.55;12.35;101624.69;4951341;29;1059;-75
2021/04/20 13:08:54;;;;;;;;;;;;;;;28.02;12.98;101624.97;4946899;29;3222;-74
2021/04/20 13:11:33;;;;;;;;;;;;;;;28.88;13.73;101623.28;4941392;29;1903;-74
2021/04/20 13:14:00;;;;;;;;;;;;;;;28.74;12.86;101615.22;4944390;29;818;-74